Time;durP1;ratioP1;P1;durP2;ratioP2;P2;SDS_P1;SDS_P2;PMS_P1;PMS_P2;Temp;Humidity;BMP_temperature;BMP_pressure;BME280_temperature;BME280_humidity;BME280_pressure;Samples;Min_cycle;Max_cycle;Signal;HPM_P1;HPM_P2
2022/12/30 00:00:30;;;;;;;12.53;8.43;;;6.90;99.90;;;;;;10371265;28;20263;-88
2022/12/30 00:05:33;;;;;;;15.47;7.47;;;6.70;99.90;;;;;;10370942;28;20239;-88
2022/12/30 00:10:35;;;;;;;14.73;8.33;;;6.60;99.90;;;;;;10370916;28;20786;-89
2022/12/30 00:37:07;;;;;;;13.00;6.30;;;7.10;99.90;;;;;;10352350;28;20243;-89
2022/12/30 00:47:31;;;;;;;11.73;6.27;;;7.20;99.90;;;;;;10369925;28;20688;-88
2022/12/30 00:57:54;;;;;;;8.47;5.43;;;7.00;99.90;;;;;;10368623;28;20256;-88
2022/12/30 01:02:57;;;;;;;10.37;6.47;;;7.00;99.90;;;;;;10368840;28;20302;-88
2022/12/30 01:08:00;;;;;;;10.03;6.67;;;7.00;99.90;;;;;;10350854;28;20337;-89
2022/12/30 01:13:02;;;;;;;11.83;6.63;;;6.90;99.90;;;;;;10311086;28;20261;-89
2022/12/30 01:18:05;;;;;;;16.73;7.47;;;6.80;99.90;;;;;;10310378;28;20339;-88
2022/12/30 01:23:07;;;;;;;15.87;7.20;;;6.60;99.90;;;;;;10332412;28;20278;-88
2022/12/30 01:28:10;;;;;;;16.20;7.20;;;6.40;99.90;;;;;;10368713;28;20297;-89
2022/12/30 01:33:12;;;;;;;10.87;6.27;;;6.30;99.90;;;;;;10367795;28;20266;-89
2022/12/30 01:38:15;;;;;;;10.10;5.60;;;6.20;99.90;;;;;;10350206;28;20262;-89
2022/12/30 01:43:18;;;;;;;7.63;5.50;;;6.30;99.90;;;;;;10349942;28;20224;-88
2022/12/30 01:48:29;;;;;;;12.43;8.70;;;7.10;99.90;;;;;;10368295;28;20294;-88
2022/12/30 01:53:37;;;;;;;46.10;28.47;;;7.80;99.90;;;;;;10366547;28;20329;-89
2022/12/30 01:58:42;;;;;;;29.20;18.17;;;8.80;99.90;;;;;;10367863;28;20260;-89
2022/12/30 02:03:53;;;;;;;5.47;3.57;;;9.40;99.90;;;;;;10349946;28;20708;-89
2022/12/30 02:08:55;;;;;;;5.43;3.90;;;9.20;99.90;;;;;;10367509;28;20274;-89
2022/12/30 02:13:58;;;;;;;9.93;4.03;;;8.60;99.90;;;;;;10350092;28;20259;-88
2022/12/30 02:19:11;;;;;;;9.50;4.73;;;8.30;99.90;;;;;;10371193;28;20231;-89
2022/12/30 02:24:44;;;;;;;6.10;4.07;;;8.30;99.90;;;;;;10374826;28;20200;-89
2022/12/30 02:30:18;;;;;;;5.03;3.60;;;8.20;99.90;;;;;;10382156;28;20243;-89
2022/12/30 02:35:50;;;;;;;4.97;4.00;;;7.90;99.90;;;;;;10335175;28;20633;-88
2022/12/30 02:46:59;;;;;;;7.30;4.10;;;7.50;99.90;;;;;;10356534;28;20925;-89
2022/12/30 02:52:15;;;;;;;8.73;4.47;;;7.30;99.90;;;;;;10373143;28;20271;-89
2022/12/30 02:57:33;;;;;;;8.60;4.37;;;7.30;99.90;;;;;;10373943;28;20235;-89
2022/12/30 03:09:05;;;;;;;8.07;5.43;;;7.40;99.90;;;;;;10339488;28;20231;-89
2022/12/30 03:14:38;;;;;;;32.10;20.57;;;7.80;99.90;;;;;;10207982;29;21080;-89
2022/12/30 03:19:44;;;;;;;5.50;4.37;;;8.00;99.90;;;;;;10197777;29;20239;-89
2022/12/30 03:30:09;;;;;;;11.87;8.80;;;8.30;99.90;;;;;;10167136;29;20247;-89
2022/12/30 03:35:12;;;;;;;38.73;23.30;;;8.50;99.90;;;;;;10168349;29;20247;-89
2022/12/30 03:40:23;;;;;;;5.00;3.97;;;8.70;99.90;;;;;;10168381;29;20812;-89
2022/12/30 03:45:26;;;;;;;13.60;9.50;;;8.70;99.90;;;;;;10326261;28;20303;-89
2022/12/30 03:50:29;;;;;;;19.30;13.17;;;8.70;99.90;;;;;;10354558;28;20256;-88
2022/12/30 03:55:31;;;;;;;7.60;5.47;;;8.60;99.90;;;;;;10372404;28;20247;-89
2022/12/30 04:00:34;;;;;;;19.63;12.47;;;8.60;99.90;;;;;;10370038;28;20694;-88
2022/12/30 04:05:36;;;;;;;9.93;4.77;;;8.60;99.90;;;;;;10372053;28;20231;-89
2022/12/30 04:10:39;;;;;;;18.37;12.20;;;8.90;99.90;;;;;;10369783;28;20250;-89
2022/12/30 04:15:45;;;;;;;21.07;14.47;;;8.80;99.90;;;;;;10370495;28;20241;-88
2022/12/30 04:20:48;;;;;;;19.47;13.63;;;8.80;99.90;;;;;;10371411;28;20282;-89
2022/12/30 04:25:50;;;;;;;4.47;2.63;;;9.60;99.90;;;;;;10369560;28;20241;-89
2022/12/30 04:30:53;;;;;;;21.23;14.57;;;10.00;99.90;;;;;;10370155;28;20279;-88
2022/12/30 04:35:56;;;;;;;18.60;10.77;;;10.90;99.90;;;;;;10369433;28;20232;-88
2022/12/30 04:40:59;;;;;;;16.50;10.40;;;11.50;99.90;;;;;;10369782;28;20246;-89
2022/12/30 04:46:02;;;;;;;24.73;16.77;;;11.20;99.90;;;;;;10369933;28;20240;-89
2022/12/30 04:51:05;;;;;;;5.77;3.73;;;11.40;99.90;;;;;;10351237;28;20266;-89
2022/12/30 04:56:08;;;;;;;11.27;5.83;;;10.90;99.90;;;;;;10368729;28;20236;-88
2022/12/30 05:01:10;;;;;;;6.63;3.90;;;10.80;99.90;;;;;;10369284;28;20310;-88
2022/12/30 05:06:13;;;;;;;8.63;5.77;;;10.80;99.90;;;;;;10367851;28;20242;-88
2022/12/30 05:11:16;;;;;;;24.30;15.07;;;10.80;99.90;;;;;;10368238;28;20284;-88
2022/12/30 05:16:18;;;;;;;8.27;5.10;;;10.60;99.90;;;;;;10368489;28;20286;-89
2022/12/30 05:21:21;;;;;;;27.87;15.83;;;10.10;99.90;;;;;;10367426;28;20243;-89
2022/12/30 05:26:25;;;;;;;13.40;8.80;;;10.70;99.90;;;;;;10368751;28;20298;-89
2022/12/30 05:31:28;;;;;;;10.67;4.47;;;10.90;99.90;;;;;;10368219;28;20724;-89
2022/12/30 05:36:30;;;;;;;6.77;5.07;;;10.50;99.90;;;;;;10349554;28;20234;-88
2022/12/30 05:41:33;;;;;;;3.63;2.53;;;10.10;99.90;;;;;;10368387;28;20359;-88
2022/12/30 05:46:36;;;;;;;3.23;2.23;;;9.80;99.90;;;;;;10349727;28;20248;-88
2022/12/30 05:51:38;;;;;;;3.17;2.10;;;9.80;99.90;;;;;;10366087;28;20262;-88
2022/12/30 05:56:41;;;;;;;3.43;2.37;;;8.70;99.90;;;;;;10367520;28;20227;-88
2022/12/30 06:01:43;;;;;;;8.07;2.67;;;8.40;99.90;;;;;;10366579;28;20654;-89
2022/12/30 06:06:46;;;;;;;6.73;2.63;;;8.10;99.90;;;;;;10349182;28;20824;-89
2022/12/30 06:11:49;;;;;;;9.70;7.17;;;7.40;99.90;;;;;;10366919;28;20251;-89
2022/12/30 06:16:51;;;;;;;7.70;5.50;;;7.50;99.90;;;;;;10367509;28;20232;-89
2022/12/30 06:21:54;;;;;;;9.83;5.60;;;7.40;99.90;;;;;;10349067;28;20302;-88
2022/12/30 06:26:56;;;;;;;20.23;12.13;;;7.60;99.90;;;;;;10349310;28;20660;-89
2022/12/30 06:31:59;;;;;;;13.27;8.33;;;7.60;99.90;;;;;;10367239;28;20664;-89
2022/12/30 06:37:02;;;;;;;13.40;9.40;;;8.20;99.90;;;;;;10365542;28;20290;-89
2022/12/30 06:42:04;;;;;;;8.07;5.33;;;8.90;99.90;;;;;;10349220;28;20297;-89
2022/12/30 06:47:07;;;;;;;12.87;8.83;;;9.20;99.90;;;;;;10366215;28;20698;-89
2022/12/30 06:52:10;;;;;;;7.47;4.33;;;8.50;99.90;;;;;;10331889;28;20314;-89
2022/12/30 06:57:12;;;;;;;6.63;4.27;;;8.20;99.90;;;;;;10343513;28;20279;-88
2022/12/30 07:02:15;;;;;;;6.80;5.23;;;8.40;99.90;;;;;;10365822;28;20263;-88
2022/12/30 07:07:18;;;;;;;5.83;2.93;;;8.50;99.90;;;;;;10355683;28;20231;-89
2022/12/30 07:12:21;;;;;;;10.03;5.23;;;8.30;99.90;;;;;;10372171;28;20655;-88
2022/12/30 07:17:23;;;;;;;7.17;4.07;;;8.40;99.90;;;;;;10373944;28;20227;-88
2022/12/30 07:22:26;;;;;;;15.93;10.03;;;8.70;99.90;;;;;;10374125;28;20286;-88
2022/12/30 07:27:28;;;;;;;11.57;8.20;;;9.40;99.90;;;;;;10372204;28;20595;-88
2022/12/30 07:32:31;;;;;;;11.57;6.20;;;9.60;99.90;;;;;;10334527;28;20316;-87
2022/12/30 07:37:35;;;;;;;4.77;3.10;;;9.30;99.90;;;;;;10372652;28;20272;-88
2022/12/30 07:42:37;;;;;;;15.00;9.93;;;9.50;99.90;;;;;;10371026;28;20236;-88
2022/12/30 07:47:42;;;;;;;4.90;2.90;;;9.80;99.90;;;;;;10368547;28;20297;-88
2022/12/30 07:52:45;;;;;;;7.07;5.87;;;9.00;99.90;;;;;;10371126;28;20294;-88
2022/12/30 07:57:47;;;;;;;12.30;8.47;;;8.90;99.90;;;;;;10353733;28;20263;-88
2022/12/30 08:02:50;;;;;;;4.13;2.47;;;9.60;99.90;;;;;;10348285;28;20248;-88
2022/12/30 08:07:53;;;;;;;9.80;2.90;;;8.90;99.90;;;;;;10353939;28;20262;-88
2022/12/30 08:12:56;;;;;;;7.93;4.57;;;8.60;99.90;;;;;;10370396;28;20710;-88
2022/12/30 08:17:58;;;;;;;11.57;7.77;;;8.30;99.90;;;;;;10353434;28;20235;-88
2022/12/30 08:23:01;;;;;;;10.93;3.37;;;8.60;99.90;;;;;;10337295;28;20254;-88
2022/12/30 08:28:04;;;;;;;12.93;6.53;;;8.90;99.90;;;;;;10370974;28;20864;-88
2022/12/30 08:33:06;;;;;;;8.27;5.27;;;9.60;99.90;;;;;;10359131;28;20273;-88
2022/12/30 08:38:09;;;;;;;9.70;5.20;;;9.80;99.90;;;;;;10347562;28;20224;-88
2022/12/30 08:43:18;;;;;;;9.47;6.53;;;9.60;99.90;;;;;;10345168;28;20236;-88
2022/12/30 08:48:21;;;;;;;10.00;4.83;;;10.10;99.90;;;;;;10352419;28;20239;-88
2022/12/30 08:53:23;;;;;;;12.80;8.90;;;10.10;99.90;;;;;;10369082;28;20259;-88
2022/12/30 08:58:26;;;;;;;10.50;5.47;;;10.10;99.90;;;;;;10369261;28;20260;-89
2022/12/30 09:03:29;;;;;;;12.53;6.30;;;10.70;99.90;;;;;;10369167;28;20265;-88
2022/12/30 09:08:31;;;;;;;7.03;3.40;;;10.50;99.90;;;;;;10369903;28;21033;-88
2022/12/30 09:13:36;;;;;;;10.10;5.80;;;10.80;99.90;;;;;;10369152;28;20260;-88
2022/12/30 09:18:39;;;;;;;9.30;6.23;;;11.50;99.90;;;;;;10351155;28;20301;-89
2022/12/30 09:23:42;;;;;;;12.23;7.43;;;11.80;99.90;;;;;;10351868;28;20315;-88
2022/12/30 09:28:46;;;;;;;9.73;6.33;;;12.50;99.90;;;;;;10367579;28;20270;-88
2022/12/30 09:33:49;;;;;;;9.23;4.77;;;12.60;97.80;;;;;;10367706;28;20335;-88
2022/12/30 09:38:51;;;;;;;9.87;6.40;;;12.30;96.60;;;;;;10368521;28;20261;-88
2022/12/30 09:44:07;;;;;;;10.30;6.40;;;12.00;99.10;;;;;;10367766;28;20232;-88
2022/12/30 09:49:30;;;;;;;7.93;5.47;;;11.40;99.90;;;;;;10350448;28;20265;-88
2022/12/30 09:54:36;;;;;;;12.37;6.93;;;11.10;98.20;;;;;;10344103;28;20306;-88
2022/12/30 09:59:39;;;;;;;10.60;5.70;;;11.70;98.60;;;;;;10334327;28;20255;-88
2022/12/30 10:04:42;;;;;;;9.63;5.70;;;11.80;97.80;;;;;;10349086;28;20224;-89
2022/12/30 10:09:47;;;;;;;7.97;3.77;;;12.20;97.30;;;;;;10347706;28;20653;-88
2022/12/30 10:14:56;;;;;;;11.33;5.87;;;11.60;96.10;;;;;;10349329;28;20309;-88
2022/12/30 10:20:26;;;;;;;9.20;5.37;;;11.80;99.90;;;;;;10346679;28;20302;-88
2022/12/30 10:26:05;;;;;;;9.87;3.80;;;11.90;99.80;;;;;;10347633;28;20232;-88
2022/12/30 10:31:18;;;;;;;8.37;4.57;;;12.00;90.70;;;;;;10348765;28;20286;-88
2022/12/30 10:36:29;;;;;;;9.03;5.03;;;12.20;99.90;;;;;;10341629;28;20301;-88
2022/12/30 10:42:03;;;;;;;7.37;3.63;;;12.40;99.90;;;;;;10341225;28;20228;-89
2022/12/30 10:47:44;;;;;;;8.60;3.70;;;12.50;98.00;;;;;;10372551;28;20626;-88
2022/12/30 10:52:47;;;;;;;6.20;4.73;;;12.40;99.30;;;;;;10369826;28;20321;-88
2022/12/30 10:57:55;;;;;;;5.43;4.30;;;13.00;99.90;;;;;;10372798;28;20318;-88
2022/12/30 11:03:04;;;;;;;6.80;3.17;;;13.10;94.50;;;;;;10356676;28;20646;-88
2022/12/30 11:08:22;;;;;;;10.57;4.77;;;12.50;90.50;;;;;;10363763;28;20293;-88
2022/12/30 11:18:47;;;;;;;7.17;4.67;;;12.70;95.10;;;;;;10357177;28;20316;-88
2022/12/30 11:23:54;;;;;;;10.33;4.23;;;12.30;93.90;;;;;;10351537;28;20236;-88
2022/12/30 11:28:59;;;;;;;7.30;2.93;;;12.40;93.50;;;;;;10371115;28;20290;-88
2022/12/30 11:34:04;;;;;;;9.13;2.20;;;11.50;90.60;;;;;;10372572;28;20652;-88
2022/12/30 11:39:06;;;;;;;8.90;4.07;;;11.30;90.40;;;;;;10358347;28;20694;-88
2022/12/30 11:44:12;;;;;;;7.73;2.47;;;12.30;95.50;;;;;;10372325;28;20263;-88
2022/12/30 11:49:32;;;;;;;6.67;2.60;;;11.90;86.30;;;;;;10367683;28;20240;-88
2022/12/30 11:55:01;;;;;;;7.03;2.40;;;11.60;86.20;;;;;;10363905;28;20291;-88
2022/12/30 12:00:17;;;;;;;5.33;1.80;;;11.30;90.60;;;;;;10333510;28;20321;-88
2022/12/30 12:05:20;;;;;;;5.43;2.60;;;10.60;97.80;;;;;;10372153;28;20246;-88
2022/12/30 12:10:28;;;;;;;6.13;2.10;;;11.40;98.70;;;;;;10350914;28;20301;-90
2022/12/30 12:15:43;;;;;;;4.60;2.73;;;11.10;93.00;;;;;;10370777;28;20255;-89
2022/12/30 12:21:14;;;;;;;9.10;2.73;;;10.90;98.50;;;;;;10383675;28;20235;-89
2022/12/30 12:26:23;;;;;;;11.90;4.13;;;10.40;99.90;;;;;;10346880;28;20233;-89
2022/12/30 12:31:28;;;;;;;8.07;3.00;;;9.80;97.50;;;;;;10353010;28;20307;-90
2022/12/30 12:36:57;;;;;;;9.20;3.23;;;9.60;99.90;;;;;;10344292;28;20247;-90
2022/12/30 12:42:06;;;;;;;6.20;2.30;;;9.50;99.90;;;;;;10370421;28;20254;-89
2022/12/30 12:47:36;;;;;;;10.60;3.30;;;9.80;99.90;;;;;;10371216;28;20242;-88
2022/12/30 12:53:00;;;;;;;15.23;5.20;;;9.90;97.10;;;;;;10370174;28;20237;-87
2022/12/30 12:58:07;;;;;;;5.73;2.53;;;9.30;97.70;;;;;;10311963;28;20266;-88
2022/12/30 13:03:33;;;;;;;9.43;2.40;;;8.90;99.20;;;;;;10348137;28;20269;-90
2022/12/30 13:08:42;;;;;;;11.47;2.10;;;9.50;98.30;;;;;;10356494;28;20243;-90
2022/12/30 13:13:55;;;;;;;10.83;3.73;;;9.00;99.90;;;;;;10344689;28;20802;-89
2022/12/30 13:19:00;;;;;;;12.37;4.30;;;8.50;99.90;;;;;;10360602;28;20308;-90
2022/12/30 13:24:06;;;;;;;9.63;3.20;;;8.20;99.90;;;;;;10323881;28;20330;-90
2022/12/30 13:29:12;;;;;;;13.83;3.50;;;7.90;99.90;;;;;;10328835;28;20233;-91
2022/12/30 13:34:24;;;;;;;12.30;4.13;;;8.40;99.90;;;;;;10337718;28;20260;-89
2022/12/30 13:39:44;;;;;;;10.13;3.77;;;9.10;99.90;;;;;;10349600;28;20241;-90
2022/12/30 13:44:47;;;;;;;7.63;3.77;;;9.50;99.90;;;;;;10327592;28;20276;-89
2022/12/30 13:49:50;;;;;;;8.77;3.90;;;9.80;99.90;;;;;;10326925;28;20247;-91
2022/12/30 13:54:56;;;;;;;10.23;5.03;;;9.80;99.90;;;;;;10309367;28;20380;-90
2022/12/30 14:00:07;;;;;;;17.17;6.40;;;9.80;99.90;;;;;;10326317;28;20263;-90
2022/12/30 14:05:55;;;;;;;22.57;8.13;;;9.40;99.90;;;;;;10327654;28;20276;-91
2022/12/30 14:11:01;;;;;;;22.37;9.43;;;8.80;99.90;;;;;;10327866;28;20220;-91
2022/12/30 14:16:05;;;;;;;10.10;5.93;;;8.30;99.90;;;;;;10309000;28;20268;-90
2022/12/30 14:21:13;;;;;;;16.70;7.33;;;8.20;99.90;;;;;;10326998;28;20274;-90
2022/12/30 14:26:19;;;;;;;18.83;9.63;;;8.10;99.90;;;;;;10309676;28;20255;-91
2022/12/30 14:31:33;;;;;;;16.90;7.20;;;7.80;99.90;;;;;;10310366;28;20279;-91
2022/12/30 14:36:40;;;;;;;15.80;6.63;;;7.70;99.90;;;;;;10326170;28;20264;-91
2022/12/30 14:41:45;;;;;;;14.37;7.13;;;7.50;99.90;;;;;;10326733;28;20279;-89
2022/12/30 14:47:09;;;;;;;13.23;6.63;;;7.50;99.90;;;;;;10308142;28;20298;-89
2022/12/30 14:52:14;;;;;;;15.93;8.27;;;7.50;99.90;;;;;;10323823;28;20248;-89
2022/12/30 14:57:25;;;;;;;20.43;8.87;;;7.30;99.90;;;;;;10325167;28;20715;-88
2022/12/30 15:02:31;;;;;;;18.07;7.10;;;7.10;99.90;;;;;;10325942;28;20240;-89
2022/12/30 15:07:34;;;;;;;14.63;6.30;;;7.10;99.90;;;;;;10326468;28;20639;-89
2022/12/30 15:12:39;;;;;;;15.23;7.43;;;7.10;99.90;;;;;;10308318;28;20898;-88
2022/12/30 15:17:45;;;;;;;13.53;5.90;;;7.20;99.90;;;;;;10325266;28;20699;-89
2022/12/30 15:22:48;;;;;;;15.07;7.00;;;7.20;99.90;;;;;;10308734;28;20244;-89
2022/12/30 15:27:53;;;;;;;16.30;7.63;;;7.00;99.90;;;;;;10330604;28;20695;-89
2022/12/30 15:33:04;;;;;;;14.87;6.77;;;6.90;99.90;;;;;;10332265;28;20283;-89
2022/12/30 15:38:12;;;;;;;10.33;5.60;;;6.70;99.90;;;;;;10331315;28;20205;-90
2022/12/30 15:43:21;;;;;;;8.30;4.53;;;6.70;99.90;;;;;;10329098;28;20232;-88
2022/12/30 15:48:34;;;;;;;8.97;5.50;;;6.90;99.90;;;;;;10344922;28;20231;-85
2022/12/30 15:53:39;;;;;;;12.60;5.77;;;7.60;99.90;;;;;;10371542;28;20259;-85
2022/12/30 15:58:51;;;;;;;16.97;7.00;;;8.60;99.90;;;;;;10352493;28;20314;-84
2022/12/30 16:03:59;;;;;;;21.10;9.00;;;8.30;99.90;;;;;;10370959;28;20700;-84
2022/12/30 16:09:01;;;;;;;20.27;6.40;;;7.70;99.90;;;;;;10371503;28;20232;-85
2022/12/30 16:14:26;;;;;;;20.43;12.83;;;7.40;99.90;;;;;;10353850;28;20256;-85
2022/12/30 16:19:28;;;;;;;20.90;10.60;;;7.10;99.90;;;;;;10359757;28;20240;-84
2022/12/30 16:24:36;;;;;;;31.60;18.50;;;7.00;99.90;;;;;;10360085;28;20294;-85
2022/12/30 16:29:40;;;;;;;26.30;16.60;;;6.70;99.90;;;;;;10371350;28;20294;-84
2022/12/30 16:34:43;;;;;;;32.63;19.67;;;6.50;99.90;;;;;;10006478;28;9999845;-84
2022/12/30 16:39:46;;;;;;;37.23;21.83;;;6.30;99.90;;;;;;10349330;28;20264;-84
2022/12/30 16:44:48;;;;;;;25.50;16.23;;;6.20;99.90;;;;;;10365695;28;20654;-85
2022/12/30 16:49:51;;;;;;;19.47;11.77;;;6.30;99.90;;;;;;10365645;28;20236;-85
2022/12/30 16:54:55;;;;;;;29.53;16.37;;;6.30;99.90;;;;;;10367026;28;20251;-84
2022/12/30 16:59:58;;;;;;;46.17;24.57;;;6.50;99.90;;;;;;10348391;28;20272;-84
2022/12/30 17:05:23;;;;;;;64.60;34.30;;;6.50;99.90;;;;;;10365043;28;20236;-84
2022/12/30 17:15:46;;;;;;;46.97;26.50;;;6.20;99.90;;;;;;10364694;28;20847;-85
2022/12/30 17:20:56;;;;;;;32.87;16.90;;;6.30;99.90;;;;;;10352032;28;20228;-85
2022/12/30 17:26:02;;;;;;;23.67;14.50;;;6.30;99.90;;;;;;10341995;28;20248;-84
2022/12/30 17:31:06;;;;;;;23.23;14.77;;;6.50;99.90;;;;;;10342914;28;20290;-84
2022/12/30 17:36:22;;;;;;;26.60;14.23;;;6.30;99.90;;;;;;10318759;28;20252;-85
2022/12/30 17:41:26;;;;;;;28.40;16.47;;;6.10;99.90;;;;;;10348434;28;20214;-84
2022/12/30 17:46:29;;;;;;;24.97;15.33;;;6.10;99.90;;;;;;10346076;28;20235;-84
2022/12/30 17:51:32;;;;;;;28.63;17.87;;;6.20;99.90;;;;;;10346780;28;20259;-85
2022/12/30 17:56:38;;;;;;;30.93;17.70;;;6.30;99.90;;;;;;10322617;28;20812;-84
2022/12/30 18:01:49;;;;;;;34.40;18.50;;;6.00;99.90;;;;;;10348496;28;20276;-84
2022/12/30 18:06:52;;;;;;;36.37;21.60;;;5.90;99.90;;;;;;10303094;28;20643;-84
2022/12/30 18:11:55;;;;;;;33.83;17.87;;;5.80;99.90;;;;;;10327114;28;20338;-84
2022/12/30 18:17:06;;;;;;;47.37;23.63;;;5.80;99.90;;;;;;10319511;28;20255;-84
2022/12/30 18:22:09;;;;;;;53.40;24.70;;;5.70;99.90;;;;;;10346590;28;20278;-84
2022/12/30 18:27:12;;;;;;;54.77;23.80;;;5.60;99.90;;;;;;10362873;28;20247;-83
2022/12/30 18:32:15;;;;;;;46.70;22.90;;;5.80;99.90;;;;;;10337847;28;20243;-83
2022/12/30 18:37:17;;;;;;;49.93;23.40;;;5.90;99.90;;;;;;10360725;28;20251;-83
2022/12/30 18:42:20;;;;;;;49.37;25.50;;;5.80;99.90;;;;;;10372580;28;20223;-84
2022/12/30 18:47:22;;;;;;;41.10;21.77;;;5.90;99.90;;;;;;10358057;28;20290;-83
2022/12/30 18:52:25;;;;;;;66.20;38.53;;;5.90;99.90;;;;;;10330033;28;20700;-84
2022/12/30 18:57:27;;;;;;;90.27;46.93;;;4.30;99.90;;;;;;10359831;28;20260;-83
2022/12/30 19:02:30;;;;;;;65.50;36.00;;;3.90;99.90;;;;;;10356958;28;20244;-84
2022/12/30 19:07:33;;;;;;;62.00;36.43;;;3.80;99.90;;;;;;10330660;28;20247;-84
2022/12/30 19:12:55;;;;;;;48.37;24.07;;;3.60;99.90;;;;;;10354356;28;20245;-82
2022/12/30 19:17:58;;;;;;;31.13;16.17;;;3.60;99.90;;;;;;10353534;28;20268;-83
2022/12/30 19:23:00;;;;;;;28.77;14.83;;;3.90;99.90;;;;;;10371545;28;20262;-83
2022/12/30 19:28:03;;;;;;;28.30;15.63;;;4.50;99.90;;;;;;10315599;28;20787;-83
2022/12/30 19:33:05;;;;;;;28.33;14.80;;;4.70;99.90;;;;;;10353118;28;20764;-83
2022/12/30 19:38:08;;;;;;;29.33;17.27;;;5.00;99.90;;;;;;10354753;28;20248;-84
2022/12/30 19:43:11;;;;;;;20.30;13.37;;;5.00;99.90;;;;;;10366198;28;20258;-83
2022/12/30 19:48:13;;;;;;;19.30;12.93;;;5.50;99.90;;;;;;10363706;28;20233;-84
2022/12/30 19:53:16;;;;;;;23.90;12.67;;;6.10;99.90;;;;;;10334928;28;20251;-84
2022/12/30 19:58:18;;;;;;;19.77;13.70;;;6.40;99.90;;;;;;10367930;28;20330;-84
2022/12/30 20:03:21;;;;;;;17.50;12.73;;;6.00;99.90;;;;;;10351895;28;20701;-84
2022/12/30 20:08:23;;;;;;;14.37;10.43;;;6.00;99.90;;;;;;10346532;28;20282;-84
2022/12/30 20:13:26;;;;;;;21.83;11.93;;;6.20;99.90;;;;;;10336117;28;20233;-84
2022/12/30 20:18:28;;;;;;;19.67;11.87;;;6.50;99.90;;;;;;10351463;28;20712;-84
2022/12/30 20:23:36;;;;;;;29.13;21.40;;;6.30;99.90;;;;;;10364683;28;20232;-83
2022/12/30 20:28:38;;;;;;;32.47;19.13;;;6.10;99.90;;;;;;10371250;28;20231;-84
2022/12/30 20:33:41;;;;;;;36.00;23.83;;;6.00;99.90;;;;;;10365960;28;20236;-84
2022/12/30 20:38:43;;;;;;;20.70;14.93;;;5.80;99.90;;;;;;10369095;28;20322;-83
2022/12/30 20:43:46;;;;;;;18.83;13.87;;;5.80;99.90;;;;;;10014960;28;10000110;-84
2022/12/30 20:48:49;;;;;;;21.93;14.90;;;5.80;99.90;;;;;;10336490;28;20274;-83
2022/12/30 20:53:51;;;;;;;18.77;12.47;;;5.90;99.90;;;;;;10364065;28;20236;-84
2022/12/30 20:58:59;;;;;;;12.80;8.77;;;5.80;99.90;;;;;;10367379;28;20668;-85
2022/12/30 21:04:09;;;;;;;19.90;12.23;;;6.00;99.90;;;;;;10351918;28;20236;-86
2022/12/30 21:09:15;;;;;;;17.13;9.37;;;6.10;99.90;;;;;;10367304;28;20235;-85
2022/12/30 21:14:18;;;;;;;15.93;10.43;;;5.90;99.90;;;;;;10369812;28;20293;-85
2022/12/30 21:19:21;;;;;;;15.57;9.90;;;5.90;99.90;;;;;;10365913;28;20583;-84
2022/12/30 21:24:26;;;;;;;18.20;11.90;;;6.00;99.90;;;;;;10323882;28;20228;-84
2022/12/30 21:29:29;;;;;;;15.53;10.03;;;6.20;99.90;;;;;;10344806;28;20282;-85
2022/12/30 21:34:31;;;;;;;16.63;10.60;;;6.20;99.90;;;;;;10343840;28;20258;-85
2022/12/30 22:06:37;;;;;;;13.17;8.40;;;6.30;99.90;;;;;;10354218;28;20239;-85
2022/12/30 22:11:39;;;;;;;14.67;8.53;;;6.40;99.90;;;;;;10357369;28;20263;-85
2022/12/30 22:16:42;;;;;;;11.17;7.07;;;6.50;99.90;;;;;;10329226;28;20980;-85
2022/12/30 22:21:48;;;;;;;13.27;7.73;;;6.50;99.90;;;;;;10312545;28;20981;-85
2022/12/30 22:26:50;;;;;;;11.10;7.10;;;6.40;99.90;;;;;;10325429;28;20291;-85
2022/12/30 22:31:53;;;;;;;13.00;7.00;;;7.00;99.90;;;;;;10344606;28;20710;-85
2022/12/30 22:36:55;;;;;;;9.70;6.17;;;7.50;99.90;;;;;;10331342;28;20256;-85
2022/12/30 22:41:57;;;;;;;11.37;6.23;;;7.80;99.90;;;;;;10356916;28;20235;-85
2022/12/30 22:47:00;;;;;;;12.70;7.13;;;8.00;99.90;;;;;;10351802;28;20265;-85
2022/12/30 22:52:03;;;;;;;11.13;5.90;;;7.90;99.90;;;;;;10324987;28;20240;-85
2022/12/30 22:57:05;;;;;;;10.10;6.10;;;7.60;99.90;;;;;;10350200;28;20290;-85
2022/12/30 23:02:08;;;;;;;11.93;7.37;;;7.40;99.90;;;;;;10337904;28;20255;-84
2022/12/30 23:07:10;;;;;;;9.80;6.73;;;7.40;99.90;;;;;;10355040;28;20240;-85
2022/12/30 23:16:05;;;;;;;12.30;7.70;;;7.30;99.90;;;;;;10388768;28;20224;-85
2022/12/30 23:17:35;;;;;;;10.23;6.20;;;7.40;99.90;;;;;;10373934;28;20278;-85
2022/12/30 23:28:01;;;;;;;11.37;6.87;;;7.10;99.90;;;;;;10354431;28;20235;-84
2022/12/30 23:33:03;;;;;;;12.13;7.70;;;7.10;99.90;;;;;;10362533;28;20302;-85
2022/12/30 23:38:06;;;;;;;10.43;7.83;;;7.20;99.90;;;;;;10351087;28;20258;-85
2022/12/30 23:43:08;;;;;;;16.93;9.77;;;7.00;99.90;;;;;;10350381;28;20236;-85
2022/12/30 23:48:11;;;;;;;12.07;8.20;;;7.20;99.90;;;;;;10348993;28;20232;-84
2022/12/30 23:53:14;;;;;;;13.93;8.60;;;7.40;99.90;;;;;;10333641;28;20224;-84
2022/12/30 23:58:16;;;;;;;13.47;8.87;;;7.30;99.90;;;;;;10356960;28;20256;-85
